Latest Coastal Weather Observations for Hamilton Island

IDQ60701

Issued at 4:01 am EST Saturday 3 December 2016 (issued every 10 minutes, with the page automatically refreshed every 10 minutes)

About coastal observations | Map of coastal stations | Coastal observations for QLD | Marine services | Other Formats
Station Details ID: 033106 Name: HAMILTON ISLAND AIRPORT Lat: -20.37 Lon: 148.95 Height: 58.66 m
Data from the previous 72 hours. | See also: Recent months at Hamilton Island
Date/Time
EST
Temp
°C
Wind Pressure Rain since
9am
mm
Weather Cloud Vis
km
Sea
Height
m
Swell
Dir  Spd
kts
Gust
kts
hPa Trend Height
m
Period
s
Dir
03/04:00am 24.1 NNW 7 9 1012.1 - 0.0 - - 10 - - - -
03/03:30am 24.1 N 6 7 1012.1 - 0.0 - - 10 - - - -
03/03:00am 24.2 N 5 6 1011.6 - 0.0 - - 10 - - - -
03/02:30am 24.3 N 6 8 1011.9 - 0.0 - - 10 - - - -
03/02:00am 24.3 N 7 9 1012.0 - 0.0 - - 10 - - - -
03/01:30am 24.3 NNW 5 7 1012.4 - 0.0 - - 10 - - - -
03/01:00am 24.6 NNW 4 4 1013.0 - 0.0 - - 10 - - - -
03/12:30am 24.5 N 6 7 1013.2 - 0.0 - - 10 - - - -
03/12:00am 24.6 N 6 7 1013.0 - 0.0 - Mostly clear 10 - - - -
 
Date/Time
EST
Temp
°C
Wind Pressure Rain since
9am
mm
Weather Cloud Vis
km
Sea
Height
m
Swell
Dir  Spd
kts
Gust
kts
hPa Trend Height
m
Period
s
Dir
02/11:30pm 24.8 N 4 6 1014.0 - 0.0 - Partly cloudy 10 - - - -
02/11:00pm 24.9 N 5 7 1014.3 - 0.0 - - 10 - - - -
02/10:30pm 25.0 N 6 8 1014.2 - 0.0 - - 10 - - - -
02/10:00pm 25.1 N 6 8 1014.3 - 0.0 - - 10 - - - -
02/09:30pm 25.2 N 5 7 1014.3 - 0.0 - - 10 - - - -
02/09:00pm 25.2 N 8 11 1013.6 - 0.0 - - 10 - - - -
02/08:30pm 25.3 N 4 7 1013.8 - 0.0 - - 10 - - - -
02/08:00pm 25.7 N 6 10 1013.4 - 0.0 - - 10 - - - -
02/07:30pm 26.1 NNE 8 11 1013.1 - 0.0 - - 10 - - - -
02/07:00pm 26.3 NE 9 11 1012.9 - 0.0 - - 10 - - - -
02/06:30pm 26.7 NNW 11 14 1012.6 - 0.0 - - 10 - - - -
02/06:00pm 27.5 NW 12 15 1011.7 - 0.0 - - 10 - - - -
02/05:30pm 28.0 NW 14 18 1011.6 - 0.0 - - 10 - - - -
02/05:00pm 28.3 NNW 16 19 1011.3 - 0.0 - - 10 - - - -
02/04:30pm 29.0 NNW 14 17 1011.3 - 0.0 - - 10 - - - -
02/04:00pm 29.1 NW 11 15 1011.3 - 0.0 - - 10 - - - -
02/03:30pm 29.4 NNW 13 16 1011.4 - 0.0 - - 10 - - - -
02/03:00pm 29.8 NNW 12 15 1011.3 - 0.0 - - - - - - -
02/02:30pm 30.1 NNW 12 14 1011.9 - 0.0 - - 10 - - - -
02/02:00pm 29.5 NW 13 16 1012.0 - 0.0 - - 10 - - - -
02/01:30pm 29.1 NW 14 16 1012.3 - 0.0 - - 10 - - - -
02/01:00pm 30.5 NNW 12 14 1012.6 - 0.0 - - 10 - - - -
02/12:30pm 29.9 NW 11 14 1012.8 - 0.0 - - 10 - - - -
02/12:00pm 29.4 NW 12 15 1012.7 - 0.0 - - 10 - - - -
02/11:30am 29.8 NW 9 13 1013.4 - 0.0 - - 10 - - - -
02/11:00am 28.9 NW 11 14 1013.7 - 0.0 - - 10 - - - -
02/10:30am 28.9 NW 13 16 1013.7 - 0.0 - - 10 - - - -
02/10:00am 29.3 NW 9 11 1014.1 - 0.0 - - 10 - - - -
02/09:30am 28.7 NNW 9 11 1014.1 - 0.0 - - 10 - - - -
02/09:00am 27.2 NNW 13 16 1013.4 - 0.0 - - 10 - - - -
02/08:30am 27.4 NW 11 15 1013.3 - 0.0 - Partly cloudy 10 - - - -
02/08:00am 27.0 NNW 9 14 1013.6 - 0.0 - Partly cloudy 10 - - - -
02/07:38am 26.7 N 7 11 1013.3 - 0.0 - Partly cloudy 10 - - - -
02/07:30am 26.6 N 7 9 1013.3 - 0.0 - Partly cloudy 10 - - - -
02/07:21am 26.7 N 7 9 1013.2 - 0.0 - Partly cloudy 10 - - - -
02/07:19am 26.8 N 7 11 1013.1 - 0.0 - Partly cloudy 10 - - - -
02/07:02am 26.4 N 8 11 1012.9 - 0.0 - Partly cloudy 10 - - - -
02/07:00am 26.2 N 8 11 1012.9 - 0.0 - Partly cloudy 10 - - - -
02/06:59am 26.2 N 8 11 1012.9 - 0.0 - Partly cloudy 10 - - - -
02/06:30am 25.7 N 7 9 1012.7 - 0.0 - Partly cloudy 10 - - - -
02/06:09am 25.3 N 7 9 1012.5 - 0.0 - Partly cloudy 10 - - - -
02/06:00am 25.0 N 7 8 1012.0 - 0.0 - Mostly clear 10 - - - -
02/05:30am 24.5 N 8 11 1012.0 - 0.0 - Partly cloudy 10 - - - -
02/05:00am 24.3 N 9 11 1011.8 - 0.0 - Partly cloudy 10 - - - -
02/04:30am 24.2 N 8 11 1011.5 - 0.0 - - 10 - - - -
02/04:00am 24.2 N 8 12 1011.4 - 0.0 - - 10 - - - -
02/03:30am 24.3 N 8 11 1011.3 - 0.0 - - 10 - - - -
02/03:00am 24.3 N 6 8 1010.8 - 0.0 - - 10 - - - -
02/02:30am 24.3 N 5 7 1011.3 - 0.0 - - 10 - - - -
02/02:00am 24.3 N 7 9 1011.4 - 0.0 - - 10 - - - -
02/01:30am 24.5 N 7 9 1011.5 - 0.0 - - 10 - - - -
02/01:00am 24.5 N 5 8 1011.4 - 0.0 - - 10 - - - -
02/12:30am 24.6 N 6 8 1011.7 - 0.0 - - 10 - - - -
02/12:00am 24.6 N 6 8 1011.4 - 0.0 - - 10 - - - -
 
Date/Time
EST
Temp
°C
Wind Pressure Rain since
9am
mm
Weather Cloud Vis
km
Sea
Height
m
Swell
Dir  Spd
kts
Gust
kts
hPa Trend Height
m
Period
s
Dir
01/11:30pm 24.7 N 5 7 1012.1 - 0.0 - - 10 - - - -
01/11:00pm 25.0 NNE 5 7 1012.3 - 0.0 - - 10 - - - -
01/10:30pm 25.0 NNE 5 6 1012.2 - 0.0 - - 10 - - - -
01/10:00pm 25.2 N 5 6 1012.1 - 0.0 - - 10 - - - -
01/09:30pm 25.0 N 6 7 1011.7 - 0.0 - - 10 - - - -
01/09:00pm 25.1 NNW 6 8 1011.2 - 0.0 - - 10 - - - -
01/08:30pm 25.4 N 7 9 1011.5 - 0.0 - - 10 - - - -
01/08:00pm 25.8 N 5 8 1011.6 - 0.0 - - 10 - - - -
01/07:30pm 26.1 N 4 6 1011.5 - 0.0 - - 10 - - - -
01/07:00pm 26.4 NNE 6 7 1011.0 - 0.0 - - 10 - - - -
01/06:30pm 26.8 NNW 8 11 1010.7 - 0.0 - - 10 - - - -
01/06:00pm 27.4 NW 8 10 1010.0 - 0.0 - - 10 - - - -
01/05:30pm 27.7 NW 12 15 1010.1 - 0.0 - - 10 - - - -
01/05:00pm 29.5 NW 11 15 1010.0 - 0.0 - - 10 - - - -
01/04:30pm 29.2 NNW 7 12 1009.9 - 0.0 - - 10 - - - -
01/04:00pm 29.9 NW 10 13 1009.8 - 0.0 - - 10 - - - -
01/03:30pm 30.9 NW 6 9 1010.0 - 0.0 - - 10 - - - -
01/03:00pm 30.0 N 6 13 1010.0 - 0.0 - - 10 - - - -
01/02:30pm 29.9 E 7 10 1010.8 - 0.0 - - 10 - - - -
01/02:00pm 29.4 ESE 9 11 1011.1 - 0.0 - - 10 - - - -
01/01:30pm 28.7 ESE 10 11 1011.5 - 0.0 - - 10 - - - -
01/01:00pm 28.1 E 10 13 1011.7 - 0.0 - - 10 - - - -
01/12:30pm 28.5 ESE 10 13 1012.1 - 0.0 - - 10 - - - -
01/12:00pm 28.9 ESE 8 10 1012.1 - 0.0 - - 10 - - - -
01/11:30am 28.9 ESE 5 7 1012.8 - 0.0 - - 10 - - - -
01/11:00am 29.8 S 4 6 1013.0 - 0.0 - - 10 - - - -
01/10:30am 28.7 ESE 6 8 1013.3 - 0.0 - - 10 - - - -
01/10:00am 28.8 SSE 5 7 1013.6 - 0.0 - - - - - - -
01/09:30am 28.7 SSW 5 7 1013.8 - 0.0 - Partly cloudy 10 - - - -
01/09:00am 27.3 SE 5 7 1013.5 - 0.0 - Mostly clear 10 - - - -
01/08:30am 27.2 SE 6 8 1014.0 - 0.0 - Cloudy 10 - - - -
01/08:00am 27.0 SE 7 9 1013.9 - 0.0 - Cloudy 10 - - - -
01/07:30am 26.5 ESE 6 8 1013.8 - 0.0 - Partly cloudy 10 - - - -
01/07:00am 25.5 NNE 2 5 1013.1 - 0.0 - Partly cloudy 10 - - - -
01/06:30am 25.5 ENE 6 7 1012.9 - 0.0 - - 10 - - - -
01/06:00am 23.6 NNW 4 5 1012.1 - 0.0 - - 10 - - - -
01/05:30am 23.2 NNW 5 6 1011.9 - 0.0 - - 10 - - - -
01/05:00am 23.4 NNW 5 6 1011.4 - 0.0 - - 10 - - - -
01/04:30am 23.3 N 5 7 1011.2 - 0.0 - - 10 - - - -
01/04:00am 23.1 NNW 5 6 1011.0 - 0.0 - - 10 - - - -
01/03:30am 23.3 N 6 7 1010.8 - 0.0 - - 10 - - - -
01/03:00am 23.5 N 5 6 1010.3 - 0.0 - - 10 - - - -
01/02:30am 23.6 NNE 5 6 1010.7 - 0.0 - - 10 - - - -
01/02:00am 23.7 NNE 6 6 1010.7 - 0.0 - - 10 - - - -
01/01:30am 23.7 NNE 3 4 1010.9 - 0.0 - - 10 - - - -
01/01:00am 23.8 ENE 4 6 1010.9 - 0.0 - - 10 - - - -
01/12:30am 24.1 NE 3 4 1011.2 - 0.0 - - 10 - - - -
01/12:00am 23.8 NE 5 6 1010.8 - 0.0 - - 10 - - - -
 
Date/Time
EST
Temp
°C
Wind Pressure Rain since
9am
mm
Weather Cloud Vis
km
Sea
Height
m
Swell
Dir  Spd
kts
Gust
kts
hPa Trend Height
m
Period
s
Dir
30/11:30pm 24.1 ENE 5 6 1011.4 - 0.0 - - 10 - - - -
30/11:00pm 24.2 NE 5 6 1011.6 - 0.0 - - 10 - - - -
30/10:30pm 24.5 ENE 6 7 1011.5 - 0.0 - - 10 - - - -
30/10:00pm 24.5 CALM 0 3 1011.4 - 0.0 - - 10 - - - -
30/09:30pm 24.5 NE 3 6 1011.4 - 0.0 - - 10 - - - -
30/09:00pm 24.7 NNW 1 4 1010.9 - 0.0 - - 10 - - - -
30/08:30pm 24.9 NE 8 10 1011.1 - 0.0 - - 10 - - - -
30/08:00pm 24.9 NE 7 9 1011.2 - 0.0 - - 10 - - - -
30/07:30pm 25.1 NE 8 12 1010.9 - 0.0 - - 10 - - - -
30/07:00pm 25.3 NE 9 13 1010.5 - 0.0 - - 10 - - - -
30/06:30pm 25.7 NE 12 15 1010.2 - 0.0 - - 10 - - - -
30/06:00pm 26.5 NE 9 12 1009.4 - 0.0 - - 10 - - - -
30/05:30pm 26.8 ENE 10 11 1009.7 - 0.0 - - 10 - - - -
30/05:00pm 26.9 E 9 13 1009.2 - 0.0 - - 10 - - - -
30/04:30pm 27.2 E 12 16 1008.9 - 0.0 - - 10 - - - -
30/04:00pm 27.4 E 13 16 1008.8 - 0.0 - - 10 - - - -
30/03:30pm 26.8 E 17 20 1009.1 - 0.0 - - 10 - - - -
30/03:00pm 27.2 E 17 21 1008.7 - 0.0 - - 10 - - - -
30/02:30pm 27.6 E 16 19 1009.2 - 0.0 - - 10 - - - -
30/02:00pm 27.4 E 14 16 1009.6 - 0.0 - - 10 - - - -
30/01:30pm 27.8 ESE 13 14 1010.0 - 0.0 - - 10 - - - -
30/01:00pm 27.4 E 11 13 1010.4 - 0.0 - - 10 - - - -
30/12:30pm 27.5 ESE 11 13 1010.8 - 0.0 - - 10 - - - -
30/12:00pm 28.0 ESE 11 12 1010.7 - 0.0 - - 10 - - - -
30/11:30am 28.1 SE 8 10 1011.5 - 0.0 - - 10 - - - -
30/11:00am 27.9 SE 7 8 1011.9 - 0.0 - - 10 - - - -
30/10:30am 27.6 SE 7 9 1012.0 - 0.0 - - 10 - - - -
30/10:00am 27.1 SE 7 8 1012.3 - 0.0 - - 10 - - - -
30/09:30am 27.2 ESE 6 7 1012.4 - 0.0 - - 10 - - - -
30/09:00am 27.1 SE 5 7 1012.0 - 0.0 - Mostly clear 10 - - - -
30/08:30am 27.4 S 5 7 1012.3 - 0.0 - - 10 - - - -
30/08:00am 26.0 WSW 5 7 1012.1 - 0.0 - - 10 - - - -
30/07:30am 25.5 WSW 5 6 1012.0 - 0.0 - Partly cloudy 10 - - - -
30/07:00am 24.6 WSW 4 6 1011.7 - 0.0 - - 10 - - - -
30/06:30am 24.0 WSW 6 8 1011.6 - 0.0 - - 10 - - - -
30/06:00am 23.5 WNW 1 4 1011.0 - 0.0 - - 10 - - - -
30/05:30am 23.3 WNW 3 4 1011.1 - 0.0 - - 10 - - - -
30/05:00am 23.4 WNW 4 6 1010.8 - 0.0 - - 10 - - - -
30/04:30am 23.3 NNW 4 5 1010.5 - 0.0 - - - - - - -

Other Formats:

Comma delimited format used in spreadsheet applications
http://www.bom.gov.au/fwo/IDQ60701/IDQ60701.94368.axf

JavaScript Object Notation format (JSON) in row-major order
http://www.bom.gov.au/fwo/IDQ60701/IDQ60701.94368.json